CYOC

Old Crow Airport

Old Crow, , Canada
TAF CYOC 171738Z 1718/1801 06005KT 2SM BR OVC004 TEMPO 1718/1721 6SM -FZDZ BR SCT004 BKN020 FM172100 06007KT P6SM SCT008 BKN020 TEMPO 1721/1801 3SM -FZDZ BR BKN008 RMK NXT FCST WILL BE ISSUED AT 181445Z
Issued Valid From Valid To
Oct-17 @ 17:38 UTC
(45 minutes ago)
Oct-17 @ 18:00 UTC
(23 minutes ago)
Oct-18 @ 01:00 UTC
(in 7 hours)
Oct-17 @ 18:00 to Oct-17 @ 21:00
TAF CYOC 171738Z 1718/1801 06005KT 2SM BR OVC004
Wind Visibility Clouds Conditions
60° at 5 knots 2 miles
  • Overcast at 400' AGL
  • Mist
Temporary Oct-17 @ 18:00 to Oct-17 @ 21:00
TEMPO 1718/1721 6SM -FZDZ BR SCT004 BKN020
Visibility Clouds Conditions
6 miles
  • Scattered at 400' AGL
  • Broken at 2,000' AGL
  • Light Freezing
  • Light Drizzle
  • Mist
From Oct-17 @ 21:00 to Oct-18 @ 01:00
FM172100 06007KT P6SM SCT008 BKN020
Wind Visibility Clouds
60° at 7 knots Greater than 6 miles
  • Scattered at 800' AGL
  • Broken at 2,000' AGL
Temporary Oct-17 @ 21:00 to Oct-18 @ 01:00
TEMPO 1721/1801 3SM -FZDZ BR BKN008 RMK NXT FCST WILL BE ISSUED AT 181445Z
Visibility Clouds Conditions
3 miles
  • Broken at 800' AGL
  • Light Freezing
  • Light Drizzle
  • Mist
TAF CYOC 171738Z 1718/1801 06005KT 2SM BR OVC004 TEMPO 1718/1721 6SM -FZDZ BR SCT004 BKN020 FM172100 06007KT P6SM SCT008 BKN020 TEMPO 1721/1801 3SM -FZDZ BR BKN008 RMK NXT FCST WILL BE ISSUED AT 181445Z
Issued Oct-17 @ 17:38 UTC
(45 minutes ago)
Valid From Oct-17 @ 18:00 UTC
(23 minutes ago)
Valid To Oct-18 @ 01:00 UTC
(in 7 hours)
Oct-17 @ 18:00 - Oct-17 @ 21:00
Wind Visibility
60° at 5 knots 2 miles
Clouds
  • Overcast at 400' AGL
Conditions
  • Mist
Temporary Oct-17 @ 18:00 - Oct-17 @ 21:00
Clouds
  • Scattered at 400' AGL
  • Broken at 2,000' AGL
Conditions
  • Light Freezing
  • Light Drizzle
  • Mist
From Oct-17 @ 21:00 - Oct-18 @ 01:00
Wind Visibility
60° at 7 knots Greater than 6 miles
Clouds
  • Scattered at 800' AGL
  • Broken at 2,000' AGL
Temporary Oct-17 @ 21:00 - Oct-18 @ 01:00
Clouds
  • Broken at 800' AGL
Conditions
  • Light Freezing
  • Light Drizzle
  • Mist